Terminal Aerodrome Forecast
Issued by NWS

Home | Current Version | Previous Version | Text Only | Print | Product List | Glossary On
Versions: 1 2 3 4 5 6 7 8 9 10 11 12 13 14 15 16 17
629
FTUS43 KDTX 291120
TAFMBS
TAF
KMBS 291120Z 2912/3012 22012G21KT P6SM SCT040 OVC090
     FM291600 24019G27KT P6SM BKN060
     FM300100 24014KT P6SM SCT060 BKN100 PROB30 3003/3007 2SM TSRA
      OVC035CB
     FM300700 20006KT 6SM -SHRA BR SCT030 BKN040 OVC060=

USA.gov is the U.S. government's official web portal to all federal, state and local government web resources and services.